sensor_id;sensor_type;location;lat;lon;timestamp;temperature;humidity
21267;DHT22;10791;53.108;18.326;2022-09-12T00:03:03;9.80;99.90
21267;DHT22;10791;53.108;18.326;2022-09-12T00:08:07;9.80;99.90
21267;DHT22;10791;53.108;18.326;2022-09-12T00:13:12;9.70;99.90
21267;DHT22;10791;53.108;18.326;2022-09-12T00:18:16;9.70;99.90
21267;DHT22;10791;53.108;18.326;2022-09-12T00:23:22;9.60;99.90
21267;DHT22;10791;53.108;18.326;2022-09-12T00:28:27;9.60;99.90
21267;DHT22;10791;53.108;18.326;2022-09-12T00:33:30;9.60;99.90
21267;DHT22;10791;53.108;18.326;2022-09-12T00:38:37;9.50;99.90
21267;DHT22;10791;53.108;18.326;2022-09-12T00:43:51;9.40;99.90
21267;DHT22;10791;53.108;18.326;2022-09-12T00:49:05;9.40;99.90
21267;DHT22;10791;53.108;18.326;2022-09-12T00:54:14;9.50;99.90
21267;DHT22;10791;53.108;18.326;2022-09-12T00:59:32;9.60;99.90
21267;DHT22;10791;53.108;18.326;2022-09-12T01:04:38;9.50;99.90
21267;DHT22;10791;53.108;18.326;2022-09-12T01:09:44;9.60;99.90
21267;DHT22;10791;53.108;18.326;2022-09-12T01:14:47;9.60;99.90
21267;DHT22;10791;53.108;18.326;2022-09-12T01:52:07;9.50;99.90
21267;DHT22;10791;53.108;18.326;2022-09-12T01:57:24;9.40;99.90
21267;DHT22;10791;53.108;18.326;2022-09-12T02:02:34;9.50;99.90
21267;DHT22;10791;53.108;18.326;2022-09-12T02:07:46;9.40;99.90
21267;DHT22;10791;53.108;18.326;2022-09-12T02:18:00;9.40;99.90
21267;DHT22;10791;53.108;18.326;2022-09-12T02:23:10;9.40;99.90
21267;DHT22;10791;53.108;18.326;2022-09-12T02:28:30;9.50;99.90
21267;DHT22;10791;53.108;18.326;2022-09-12T02:33:48;9.60;99.90
21267;DHT22;10791;53.108;18.326;2022-09-12T02:38:54;9.70;99.90
21267;DHT22;10791;53.108;18.326;2022-09-12T02:43:59;9.70;99.90
21267;DHT22;10791;53.108;18.326;2022-09-12T02:49:03;9.80;99.90
21267;DHT22;10791;53.108;18.326;2022-09-12T02:54:07;9.70;99.90
21267;DHT22;10791;53.108;18.326;2022-09-12T02:59:15;9.70;99.90
21267;DHT22;10791;53.108;18.326;2022-09-12T03:21:07;9.50;99.90
21267;DHT22;10791;53.108;18.326;2022-09-12T03:26:25;9.40;99.90
21267;DHT22;10791;53.108;18.326;2022-09-12T03:31:31;9.40;99.90
21267;DHT22;10791;53.108;18.326;2022-09-12T03:36:35;9.20;99.90
21267;DHT22;10791;53.108;18.326;2022-09-12T03:41:38;9.10;99.90
21267;DHT22;10791;53.108;18.326;2022-09-12T03:46:43;9.00;99.90
21267;DHT22;10791;53.108;18.326;2022-09-12T03:51:48;8.80;99.90
21267;DHT22;10791;53.108;18.326;2022-09-12T03:56:52;8.70;99.90
21267;DHT22;10791;53.108;18.326;2022-09-12T04:01:56;8.60;99.90
21267;DHT22;10791;53.108;18.326;2022-09-12T04:07:00;8.50;99.90
21267;DHT22;10791;53.108;18.326;2022-09-12T04:12:04;8.40;99.90
21267;DHT22;10791;53.108;18.326;2022-09-12T04:17:08;8.40;99.90
21267;DHT22;10791;53.108;18.326;2022-09-12T04:22:12;8.40;99.90
21267;DHT22;10791;53.108;18.326;2022-09-12T04:27:16;8.30;99.90
21267;DHT22;10791;53.108;18.326;2022-09-12T04:32:20;8.40;99.90
21267;DHT22;10791;53.108;18.326;2022-09-12T04:37:25;8.40;99.90
21267;DHT22;10791;53.108;18.326;2022-09-12T04:42:29;8.40;99.90
21267;DHT22;10791;53.108;18.326;2022-09-12T04:47:33;8.40;99.90
21267;DHT22;10791;53.108;18.326;2022-09-12T04:52:37;8.40;99.90
21267;DHT22;10791;53.108;18.326;2022-09-12T04:57:41;8.50;99.90
21267;DHT22;10791;53.108;18.326;2022-09-12T05:02:45;8.60;99.90
21267;DHT22;10791;53.108;18.326;2022-09-12T05:07:49;8.70;99.90
21267;DHT22;10791;53.108;18.326;2022-09-12T05:12:53;8.80;99.90
21267;DHT22;10791;53.108;18.326;2022-09-12T05:17:58;8.90;99.90
21267;DHT22;10791;53.108;18.326;2022-09-12T05:23:04;9.10;99.90
21267;DHT22;10791;53.108;18.326;2022-09-12T05:28:21;9.30;99.90
21267;DHT22;10791;53.108;18.326;2022-09-12T05:33:25;9.50;99.90
21267;DHT22;10791;53.108;18.326;2022-09-12T05:38:30;9.80;99.90
21267;DHT22;10791;53.108;18.326;2022-09-12T05:43:34;10.00;99.90
21267;DHT22;10791;53.108;18.326;2022-09-12T05:48:40;10.20;99.90
21267;DHT22;10791;53.108;18.326;2022-09-12T05:53:47;10.40;99.90
21267;DHT22;10791;53.108;18.326;2022-09-12T05:58:59;10.60;99.90
21267;DHT22;10791;53.108;18.326;2022-09-12T06:04:05;10.80;99.90
21267;DHT22;10791;53.108;18.326;2022-09-12T06:09:10;11.00;99.90
21267;DHT22;10791;53.108;18.326;2022-09-12T06:14:15;11.10;99.90
21267;DHT22;10791;53.108;18.326;2022-09-12T06:19:21;11.30;99.90
21267;DHT22;10791;53.108;18.326;2022-09-12T06:24:27;11.50;99.90
21267;DHT22;10791;53.108;18.326;2022-09-12T06:29:32;11.70;99.90
21267;DHT22;10791;53.108;18.326;2022-09-12T06:34:36;11.90;99.90
21267;DHT22;10791;53.108;18.326;2022-09-12T06:39:40;12.10;99.90
21267;DHT22;10791;53.108;18.326;2022-09-12T06:44:44;12.40;99.90
21267;DHT22;10791;53.108;18.326;2022-09-12T06:49:49;12.50;99.90
21267;DHT22;10791;53.108;18.326;2022-09-12T06:54:53;12.70;99.90
21267;DHT22;10791;53.108;18.326;2022-09-12T06:59:57;12.90;99.90
21267;DHT22;10791;53.108;18.326;2022-09-12T07:05:02;13.20;99.90
21267;DHT22;10791;53.108;18.326;2022-09-12T07:10:07;13.40;99.90
21267;DHT22;10791;53.108;18.326;2022-09-12T07:15:12;13.60;99.90
21267;DHT22;10791;53.108;18.326;2022-09-12T07:20:17;13.80;99.90
21267;DHT22;10791;53.108;18.326;2022-09-12T07:25:24;14.10;99.90
21267;DHT22;10791;53.108;18.326;2022-09-12T07:30:28;14.30;99.90
21267;DHT22;10791;53.108;18.326;2022-09-12T07:35:33;14.50;99.90
21267;DHT22;10791;53.108;18.326;2022-09-12T07:40:38;14.60;99.90
21267;DHT22;10791;53.108;18.326;2022-09-12T07:45:43;14.80;99.90
21267;DHT22;10791;53.108;18.326;2022-09-12T07:51:00;15.10;99.90
21267;DHT22;10791;53.108;18.326;2022-09-12T07:56:12;15.30;99.90
21267;DHT22;10791;53.108;18.326;2022-09-12T08:01:24;15.50;99.90
21267;DHT22;10791;53.108;18.326;2022-09-12T08:06:30;15.70;99.90
21267;DHT22;10791;53.108;18.326;2022-09-12T08:11:40;15.90;99.90
21267;DHT22;10791;53.108;18.326;2022-09-12T08:16:46;16.10;99.90
21267;DHT22;10791;53.108;18.326;2022-09-12T08:21:51;16.30;99.90
21267;DHT22;10791;53.108;18.326;2022-09-12T08:26:56;16.50;99.90
21267;DHT22;10791;53.108;18.326;2022-09-12T08:32:03;16.70;99.90
21267;DHT22;10791;53.108;18.326;2022-09-12T08:37:09;17.10;99.90
21267;DHT22;10791;53.108;18.326;2022-09-12T08:48:20;17.40;99.90
21267;DHT22;10791;53.108;18.326;2022-09-12T08:53:31;17.40;99.90
21267;DHT22;10791;53.108;18.326;2022-09-12T08:58:44;17.70;99.90
21267;DHT22;10791;53.108;18.326;2022-09-12T09:09:27;17.60;99.90
21267;DHT22;10791;53.108;18.326;2022-09-12T09:15:05;17.90;99.90
21267;DHT22;10791;53.108;18.326;2022-09-12T09:20:34;17.80;99.90
21267;DHT22;10791;53.108;18.326;2022-09-12T09:26:11;18.10;99.90
21267;DHT22;10791;53.108;18.326;2022-09-12T09:31:24;18.20;99.90
21267;DHT22;10791;53.108;18.326;2022-09-12T09:36:59;17.90;99.90
21267;DHT22;10791;53.108;18.326;2022-09-12T09:42:36;17.60;99.90
21267;DHT22;10791;53.108;18.326;2022-09-12T09:53:49;18.50;99.90
21267;DHT22;10791;53.108;18.326;2022-09-12T09:58:53;18.40;99.90
21267;DHT22;10791;53.108;18.326;2022-09-12T10:03:57;18.70;99.90
21267;DHT22;10791;53.108;18.326;2022-09-12T10:19:39;19.20;97.30
21267;DHT22;10791;53.108;18.326;2022-09-12T10:24:47;19.20;96.40
21267;DHT22;10791;53.108;18.326;2022-09-12T10:30:18;19.10;94.70
21267;DHT22;10791;53.108;18.326;2022-09-12T10:35:27;19.00;97.40
21267;DHT22;10791;53.108;18.326;2022-09-12T10:40:40;19.30;96.30
21267;DHT22;10791;53.108;18.326;2022-09-12T10:45:45;19.40;94.40
21267;DHT22;10791;53.108;18.326;2022-09-12T10:50:48;19.60;94.40
21267;DHT22;10791;53.108;18.326;2022-09-12T10:56:12;19.90;93.30
21267;DHT22;10791;53.108;18.326;2022-09-12T11:01:26;20.10;90.90
21267;DHT22;10791;53.108;18.326;2022-09-12T11:33:51;20.30;86.60
21267;DHT22;10791;53.108;18.326;2022-09-12T11:45:08;19.30;87.20
21267;DHT22;10791;53.108;18.326;2022-09-12T11:50:27;19.20;90.40
21267;DHT22;10791;53.108;18.326;2022-09-12T11:56:03;19.60;86.20
21267;DHT22;10791;53.108;18.326;2022-09-12T12:06:20;20.20;84.50
21267;DHT22;10791;53.108;18.326;2022-09-12T12:11:34;20.30;84.00
21267;DHT22;10791;53.108;18.326;2022-09-12T12:16:40;20.50;83.40
21267;DHT22;10791;53.108;18.326;2022-09-12T12:21:47;20.80;80.50
21267;DHT22;10791;53.108;18.326;2022-09-12T12:27:02;20.90;82.50
21267;DHT22;10791;53.108;18.326;2022-09-12T12:32:17;20.50;82.10
21267;DHT22;10791;53.108;18.326;2022-09-12T12:48:07;19.90;84.30
21267;DHT22;10791;53.108;18.326;2022-09-12T12:53:25;19.70;83.90
21267;DHT22;10791;53.108;18.326;2022-09-12T12:58:36;20.10;90.40
21267;DHT22;10791;53.108;18.326;2022-09-12T13:03:56;20.50;86.20
21267;DHT22;10791;53.108;18.326;2022-09-12T13:09:07;21.20;85.80
21267;DHT22;10791;53.108;18.326;2022-09-12T13:14:34;21.40;85.40
21267;DHT22;10791;53.108;18.326;2022-09-12T13:19:38;21.70;81.30
21267;DHT22;10791;53.108;18.326;2022-09-12T13:24:47;21.70;80.60
21267;DHT22;10791;53.108;18.326;2022-09-12T13:30:14;21.40;80.10
21267;DHT22;10791;53.108;18.326;2022-09-12T13:46:01;21.10;79.90
21267;DHT22;10791;53.108;18.326;2022-09-12T13:51:05;20.80;81.10
21267;DHT22;10791;53.108;18.326;2022-09-12T13:56:18;21.20;83.90
21267;DHT22;10791;53.108;18.326;2022-09-12T14:01:24;21.60;81.70
21267;DHT22;10791;53.108;18.326;2022-09-12T14:06:35;21.70;79.70
21267;DHT22;10791;53.108;18.326;2022-09-12T14:11:40;22.00;79.00
21267;DHT22;10791;53.108;18.326;2022-09-12T14:16:43;22.20;79.20
21267;DHT22;10791;53.108;18.326;2022-09-12T14:21:47;22.10;81.90
21267;DHT22;10791;53.108;18.326;2022-09-12T14:26:53;21.90;81.20
21267;DHT22;10791;53.108;18.326;2022-09-12T14:32:03;21.80;80.40
21267;DHT22;10791;53.108;18.326;2022-09-12T14:37:07;21.40;81.00
21267;DHT22;10791;53.108;18.326;2022-09-12T14:42:23;21.10;80.90
21267;DHT22;10791;53.108;18.326;2022-09-12T14:47:36;20.90;76.80
21267;DHT22;10791;53.108;18.326;2022-09-12T14:52:40;20.80;79.40
21267;DHT22;10791;53.108;18.326;2022-09-12T14:57:46;20.80;80.80
21267;DHT22;10791;53.108;18.326;2022-09-12T15:02:53;20.80;80.80
21267;DHT22;10791;53.108;18.326;2022-09-12T15:07:59;20.70;78.70
21267;DHT22;10791;53.108;18.326;2022-09-12T15:13:12;21.00;80.60
21267;DHT22;10791;53.108;18.326;2022-09-12T15:18:19;21.00;79.90
21267;DHT22;10791;53.108;18.326;2022-09-12T15:23:48;20.70;79.00
21267;DHT22;10791;53.108;18.326;2022-09-12T15:28:52;20.30;79.80
21267;DHT22;10791;53.108;18.326;2022-09-12T15:33:59;20.30;79.90
21267;DHT22;10791;53.108;18.326;2022-09-12T15:39:03;20.20;77.00
21267;DHT22;10791;53.108;18.326;2022-09-12T15:44:10;20.20;80.30
21267;DHT22;10791;53.108;18.326;2022-09-12T15:49:14;20.30;82.10
21267;DHT22;10791;53.108;18.326;2022-09-12T15:54:18;20.50;82.80
21267;DHT22;10791;53.108;18.326;2022-09-12T15:59:25;20.70;81.10
21267;DHT22;10791;53.108;18.326;2022-09-12T16:04:29;20.50;80.20
21267;DHT22;10791;53.108;18.326;2022-09-12T16:09:33;20.30;79.50
21267;DHT22;10791;53.108;18.326;2022-09-12T16:14:36;20.30;82.00
21267;DHT22;10791;53.108;18.326;2022-09-12T16:19:39;20.20;80.10
21267;DHT22;10791;53.108;18.326;2022-09-12T16:24:45;20.10;80.90
21267;DHT22;10791;53.108;18.326;2022-09-12T16:29:49;20.00;81.10
21267;DHT22;10791;53.108;18.326;2022-09-12T16:34:54;19.70;81.30
21267;DHT22;10791;53.108;18.326;2022-09-12T16:39:59;19.50;83.70
21267;DHT22;10791;53.108;18.326;2022-09-12T16:45:03;19.30;84.30
21267;DHT22;10791;53.108;18.326;2022-09-12T16:50:07;19.00;86.80
21267;DHT22;10791;53.108;18.326;2022-09-12T16:55:10;18.80;89.50
21267;DHT22;10791;53.108;18.326;2022-09-12T17:00:14;18.50;91.70
21267;DHT22;10791;53.108;18.326;2022-09-12T17:05:18;18.20;93.10
21267;DHT22;10791;53.108;18.326;2022-09-12T17:10:22;17.80;95.00
21267;DHT22;10791;53.108;18.326;2022-09-12T17:15:26;17.40;95.90
21267;DHT22;10791;53.108;18.326;2022-09-12T17:20:30;17.10;96.60
21267;DHT22;10791;53.108;18.326;2022-09-12T17:25:37;16.70;99.20
21267;DHT22;10791;53.108;18.326;2022-09-12T17:30:41;16.40;99.90
21267;DHT22;10791;53.108;18.326;2022-09-12T17:35:45;16.20;99.90
21267;DHT22;10791;53.108;18.326;2022-09-12T17:40:48;15.90;99.90
21267;DHT22;10791;53.108;18.326;2022-09-12T17:46:01;15.70;99.90
21267;DHT22;10791;53.108;18.326;2022-09-12T17:51:10;15.30;99.90
21267;DHT22;10791;53.108;18.326;2022-09-12T17:56:15;15.00;99.90
21267;DHT22;10791;53.108;18.326;2022-09-12T18:01:20;14.70;99.90
21267;DHT22;10791;53.108;18.326;2022-09-12T18:06:43;14.50;99.90
21267;DHT22;10791;53.108;18.326;2022-09-12T18:11:53;14.30;99.90
21267;DHT22;10791;53.108;18.326;2022-09-12T18:16:57;14.10;99.90
21267;DHT22;10791;53.108;18.326;2022-09-12T18:22:03;13.80;99.90
21267;DHT22;10791;53.108;18.326;2022-09-12T18:27:08;13.50;99.90
21267;DHT22;10791;53.108;18.326;2022-09-12T18:32:12;13.40;99.90
21267;DHT22;10791;53.108;18.326;2022-09-12T18:37:16;13.30;99.90
21267;DHT22;10791;53.108;18.326;2022-09-12T18:42:20;13.20;99.90
21267;DHT22;10791;53.108;18.326;2022-09-12T18:47:24;13.10;99.90
21267;DHT22;10791;53.108;18.326;2022-09-12T18:52:29;13.00;99.90
21267;DHT22;10791;53.108;18.326;2022-09-12T18:57:34;13.00;99.90
21267;DHT22;10791;53.108;18.326;2022-09-12T19:02:38;12.90;99.90
21267;DHT22;10791;53.108;18.326;2022-09-12T19:07:42;12.80;99.90
21267;DHT22;10791;53.108;18.326;2022-09-12T19:12:46;12.70;99.90
21267;DHT22;10791;53.108;18.326;2022-09-12T19:17:50;12.60;99.90
21267;DHT22;10791;53.108;18.326;2022-09-12T19:22:55;12.50;99.90
21267;DHT22;10791;53.108;18.326;2022-09-12T19:27:58;12.40;99.90
21267;DHT22;10791;53.108;18.326;2022-09-12T19:33:02;12.40;99.90
21267;DHT22;10791;53.108;18.326;2022-09-12T19:38:06;12.30;99.90
21267;DHT22;10791;53.108;18.326;2022-09-12T19:43:10;12.20;99.90
21267;DHT22;10791;53.108;18.326;2022-09-12T19:48:14;12.10;99.90
21267;DHT22;10791;53.108;18.326;2022-09-12T19:53:17;12.00;99.90
21267;DHT22;10791;53.108;18.326;2022-09-12T19:58:21;12.00;99.90
21267;DHT22;10791;53.108;18.326;2022-09-12T20:03:25;11.90;99.90
21267;DHT22;10791;53.108;18.326;2022-09-12T20:08:29;11.90;99.90
21267;DHT22;10791;53.108;18.326;2022-09-12T20:13:32;11.80;99.90
21267;DHT22;10791;53.108;18.326;2022-09-12T20:18:36;11.70;99.90
21267;DHT22;10791;53.108;18.326;2022-09-12T20:23:39;11.60;99.90
21267;DHT22;10791;53.108;18.326;2022-09-12T20:28:43;11.50;99.90
21267;DHT22;10791;53.108;18.326;2022-09-12T20:33:47;11.40;99.90
21267;DHT22;10791;53.108;18.326;2022-09-12T20:38:56;11.30;99.90
21267;DHT22;10791;53.108;18.326;2022-09-12T20:44:01;11.10;99.90
21267;DHT22;10791;53.108;18.326;2022-09-12T20:49:05;11.00;99.90
21267;DHT22;10791;53.108;18.326;2022-09-12T20:54:12;10.80;99.90
21267;DHT22;10791;53.108;18.326;2022-09-12T20:59:15;10.70;99.90
21267;DHT22;10791;53.108;18.326;2022-09-12T21:04:19;10.60;99.90
21267;DHT22;10791;53.108;18.326;2022-09-12T21:09:22;10.40;99.90
21267;DHT22;10791;53.108;18.326;2022-09-12T21:14:26;10.40;99.90
21267;DHT22;10791;53.108;18.326;2022-09-12T21:19:33;10.30;99.90
21267;DHT22;10791;53.108;18.326;2022-09-12T21:24:36;10.30;99.90
21267;DHT22;10791;53.108;18.326;2022-09-12T21:29:40;10.20;99.90
21267;DHT22;10791;53.108;18.326;2022-09-12T21:34:43;10.20;99.90
21267;DHT22;10791;53.108;18.326;2022-09-12T21:39:49;10.20;99.90
21267;DHT22;10791;53.108;18.326;2022-09-12T21:44:53;10.10;99.90
21267;DHT22;10791;53.108;18.326;2022-09-12T21:49:57;10.10;99.90
21267;DHT22;10791;53.108;18.326;2022-09-12T21:55:02;9.90;99.90
21267;DHT22;10791;53.108;18.326;2022-09-12T22:00:15;9.70;99.90
21267;DHT22;10791;53.108;18.326;2022-09-12T22:05:18;9.60;99.90
21267;DHT22;10791;53.108;18.326;2022-09-12T22:10:29;9.50;99.90
21267;DHT22;10791;53.108;18.326;2022-09-12T22:15:49;9.50;99.90
21267;DHT22;10791;53.108;18.326;2022-09-12T22:21:08;9.40;99.90
21267;DHT22;10791;53.108;18.326;2022-09-12T22:26:20;9.30;99.90
21267;DHT22;10791;53.108;18.326;2022-09-12T22:31:23;9.20;99.90
21267;DHT22;10791;53.108;18.326;2022-09-12T22:36:29;9.20;99.90
21267;DHT22;10791;53.108;18.326;2022-09-12T22:41:35;9.10;99.90
21267;DHT22;10791;53.108;18.326;2022-09-12T22:46:39;9.00;99.90
21267;DHT22;10791;53.108;18.326;2022-09-12T22:51:43;8.90;99.90
21267;DHT22;10791;53.108;18.326;2022-09-12T22:56:46;8.90;99.90
21267;DHT22;10791;53.108;18.326;2022-09-12T23:01:50;8.90;99.90
21267;DHT22;10791;53.108;18.326;2022-09-12T23:06:54;8.80;99.90
21267;DHT22;10791;53.108;18.326;2022-09-12T23:11:57;8.80;99.90
21267;DHT22;10791;53.108;18.326;2022-09-12T23:17:01;8.80;99.90
21267;DHT22;10791;53.108;18.326;2022-09-12T23:22:05;8.70;99.90
21267;DHT22;10791;53.108;18.326;2022-09-12T23:27:09;8.60;99.90
21267;DHT22;10791;53.108;18.326;2022-09-12T23:32:13;8.60;99.90
21267;DHT22;10791;53.108;18.326;2022-09-12T23:37:45;8.50;99.90
21267;DHT22;10791;53.108;18.326;2022-09-12T23:42:49;8.50;99.90
21267;DHT22;10791;53.108;18.326;2022-09-12T23:47:52;8.30;99.90
21267;DHT22;10791;53.108;18.326;2022-09-12T23:52:56;8.30;99.90
21267;DHT22;10791;53.108;18.326;2022-09-12T23:57:59;8.20;99.90
